Terminal Aerodrome Forecast
Issued by NWS

Home | Current Version | Previous Version | Text Only | Print | Product List | Glossary On
Versions: 1 2 3 4 5 6 7 8 9 10 11 12 13 14 15
607
FTUS46 KLOX 190207 AAA
TAFVNY
TAF AMD
KVNY 190207Z 1902/1924 15006KT P6SM SCT020
     FM190900 14008KT P6SM BKN020
     FM191500 35012KT P6SM SKC
     FM192100 35015G25KT P6SM SKC=

USA.gov is the U.S. government's official web portal to all federal, state and local government web resources and services.